Time;durP1;ratioP1;P1;durP2;ratioP2;P2;SDS_P1;SDS_P2;PMS_P1;PMS_P2;Temp;Humidity;BMP_temperature;BMP_pressure;BME280_temperature;BME280_humidity;BME280_pressure;Samples;Min_cycle;Max_cycle;Signal;HPM_P1;HPM_P2
2022/04/11 00:00:25;;;;;;;5.30;4.73;;;;;;;-0.79;100.00;94966.34;4982663;28;20204;-61
2022/04/11 00:03:11;;;;;;;5.60;4.27;;;;;;;-0.83;100.00;94968.25;4989295;28;20196;-61
2022/04/11 00:05:57;;;;;;;5.70;4.27;;;;;;;-0.95;100.00;94954.47;4987336;28;20617;-62
2022/04/11 00:08:43;;;;;;;7.23;5.03;;;;;;;-0.86;100.00;94955.59;4983101;28;20196;-61
2022/04/11 00:11:29;;;;;;;6.20;4.20;;;;;;;-0.81;100.00;94952.53;4988350;28;20970;-61
2022/04/11 00:14:15;;;;;;;5.73;4.60;;;;;;;-0.98;100.00;94955.97;5001092;28;20232;-61
2022/04/11 00:17:01;;;;;;;5.17;4.67;;;;;;;-1.08;100.00;94956.75;4987413;28;20208;-61
2022/04/11 00:19:46;;;;;;;6.43;4.60;;;;;;;-1.07;100.00;94960.19;4982891;28;20196;-61
2022/04/11 00:22:36;;;;;;;7.23;5.23;;;;;;;-1.27;100.00;94949.06;4989971;28;20231;-61
2022/04/11 00:25:22;;;;;;;8.03;4.50;;;;;;;-1.15;100.00;94953.31;4973460;28;20208;-61
2022/04/11 00:28:08;;;;;;;5.63;4.97;;;;;;;-1.07;100.00;94947.56;4989334;28;20301;-61
2022/04/11 00:30:54;;;;;;;7.07;4.67;;;;;;;-1.20;100.00;94949.06;4992921;28;20204;-61
2022/04/11 00:33:40;;;;;;;8.70;5.17;;;;;;;-1.14;100.00;94946.78;4993394;28;20224;-61
2022/04/11 00:36:26;;;;;;;7.03;5.03;;;;;;;-1.14;100.00;94947.56;4992568;28;20220;-61
2022/04/11 00:39:12;;;;;;;6.87;4.50;;;;;;;-1.06;100.00;94951.78;4993638;28;20201;-61
2022/04/11 00:42:06;;;;;;;6.53;4.60;;;;;;;-0.98;100.00;94947.94;4991631;28;20188;-61
2022/04/11 00:44:51;;;;;;;6.53;5.00;;;;;;;-1.24;100.00;94945.63;5005907;28;20220;-61
2022/04/11 00:47:37;;;;;;;8.63;5.17;;;;;;;-1.33;100.00;94951.34;5003773;28;20887;-61
2022/04/11 00:50:23;;;;;;;9.73;4.63;;;;;;;-1.45;100.00;94951.72;4987309;28;20193;-61
2022/04/11 00:53:10;;;;;;;5.03;4.53;;;;;;;-1.32;100.00;94960.13;4993019;28;20184;-61
2022/04/11 00:55:57;;;;;;;7.00;4.70;;;;;;;-1.39;100.00;94942.16;4977100;28;20271;-61
2022/04/11 00:58:43;;;;;;;5.73;4.87;;;;;;;-1.29;100.00;94954.78;4985875;28;20209;-61
2022/04/11 01:01:30;;;;;;;5.70;5.10;;;;;;;-1.30;100.00;94944.47;4959437;28;20205;-61
2022/04/11 01:04:26;;;;;;;6.10;4.93;;;;;;;-1.33;100.00;94942.53;4972706;28;20518;-61
2022/04/11 01:07:12;;;;;;;5.73;4.40;;;;;;;-1.45;100.00;94949.03;4978334;28;20246;-61
2022/04/11 01:10:02;;;;;;;5.70;4.70;;;;;;;-1.38;100.00;94946.38;4994262;28;20208;-61
2022/04/11 01:12:49;;;;;;;4.80;4.30;;;;;;;-1.51;100.00;94942.50;4971020;28;20576;-61
2022/04/11 01:15:35;;;;;;;4.97;4.47;;;;;;;-1.51;100.00;94941.75;4972854;28;20196;-61
2022/04/11 01:18:22;;;;;;;5.33;4.30;;;;;;;-1.56;100.00;94942.13;4995680;28;20276;-61
2022/04/11 01:21:09;;;;;;;4.90;4.40;;;;;;;-1.57;100.00;94949.38;4992390;28;20196;-61
2022/04/11 01:23:55;;;;;;;5.83;4.77;;;;;;;-1.57;100.00;94941.34;5005108;28;20188;-61
2022/04/11 01:26:42;;;;;;;5.73;4.60;;;;;;;-1.63;100.00;94944.78;4991612;28;20212;-60
2022/04/11 01:29:29;;;;;;;4.73;4.00;;;;;;;-1.57;100.00;94945.94;4969044;28;20196;-61
2022/04/11 01:32:16;;;;;;;5.43;4.20;;;;;;;-1.44;100.00;94944.41;5003737;28;20208;-61
2022/04/11 01:35:02;;;;;;;5.90;5.10;;;;;;;-1.33;100.00;94940.66;5003810;28;20251;-61
2022/04/11 01:37:48;;;;;;;6.47;5.00;;;;;;;-1.25;100.00;94944.84;4986992;28;20227;-61
2022/04/11 01:40:34;;;;;;;4.73;4.23;;;;;;;-1.47;100.00;94945.19;4985668;28;20250;-61
2022/04/11 01:43:21;;;;;;;5.47;4.60;;;;;;;-1.30;100.00;94947.91;4987060;28;20220;-62
2022/04/11 01:46:08;;;;;;;8.43;4.77;;;;;;;-1.35;100.00;94942.16;4975329;28;20235;-61
2022/04/11 01:49:20;;;;;;;5.23;4.57;;;;;;;-1.29;100.00;94941.41;4981824;28;20316;-61
2022/04/11 01:52:06;;;;;;;5.10;4.60;;;;;;;-1.31;100.00;94938.31;4994720;28;20283;-61
2022/04/11 01:54:52;;;;;;;6.23;4.40;;;;;;;-1.30;100.00;94928.38;4976120;28;20220;-61
2022/04/11 01:57:38;;;;;;;5.57;4.97;;;;;;;-1.30;100.00;94934.53;4972742;28;20213;-61
2022/04/11 02:00:24;;;;;;;5.47;4.43;;;;;;;-1.15;100.00;94924.56;4988174;28;20567;-61
2022/04/11 02:03:11;;;;;;;4.40;4.00;;;;;;;-1.03;100.00;94931.47;4990153;28;20227;-61
2022/04/11 02:05:57;;;;;;;5.03;4.27;;;;;;;-1.37;100.00;94926.47;4984493;28;20189;-61
2022/04/11 02:08:43;;;;;;;5.63;4.50;;;;;;;-1.22;100.00;94919.97;4983184;28;20193;-61
2022/04/11 02:11:32;;;;;;;5.80;4.30;;;;;;;-1.32;100.00;94918.06;4982004;28;20642;-61
2022/04/11 02:14:18;;;;;;;6.17;4.37;;;;;;;-1.39;100.00;94918.03;4989432;28;20224;-61
2022/04/11 02:17:04;;;;;;;6.37;4.43;;;;;;;-1.25;100.00;94909.25;4993384;28;20216;-61
2022/04/11 02:19:50;;;;;;;5.67;3.97;;;;;;;-1.49;100.00;94905.41;4955659;28;20197;-61
2022/04/11 02:22:52;;;;;;;6.27;4.30;;;;;;;-1.37;100.00;94906.94;4977063;28;20614;-61
2022/04/11 02:25:40;;;;;;;4.73;3.90;;;;;;;-1.34;100.00;94906.22;4986914;28;20196;-61
2022/04/11 02:28:26;;;;;;;6.77;3.73;;;;;;;-1.37;100.00;94898.91;4993196;28;20200;-61
2022/04/11 02:31:12;;;;;;;7.37;4.23;;;;;;;-1.24;100.00;94905.44;4989790;28;20197;-62
2022/04/11 02:33:58;;;;;;;5.27;4.57;;;;;;;-1.27;100.00;94892.78;5004270;28;20307;-61
2022/04/11 02:36:44;;;;;;;4.23;3.83;;;;;;;-1.24;100.00;94889.38;4976496;28;20314;-61
2022/04/11 02:39:30;;;;;;;4.40;3.87;;;;;;;-1.38;100.00;94892.03;4977397;28;20192;-60
2022/04/11 02:42:24;;;;;;;4.73;4.20;;;;;;;-1.34;100.00;94887.47;4978636;28;20200;-61
2022/04/11 02:45:15;;;;;;;3.83;3.50;;;;;;;-1.31;100.00;94878.66;4989615;28;20180;-61
2022/04/11 02:48:02;;;;;;;3.90;3.50;;;;;;;-1.30;100.00;94874.81;4977435;28;20262;-61
2022/04/11 02:50:51;;;;;;;3.93;3.53;;;;;;;-1.39;100.00;94875.19;4976005;28;20642;-61
2022/04/11 02:53:41;;;;;;;4.73;3.80;;;;;;;-1.37;100.00;94877.47;4993334;28;20251;-60
2022/04/11 02:56:27;;;;;;;4.87;4.20;;;;;;;-1.52;100.00;94886.66;4977996;28;20224;-61
2022/04/11 02:59:13;;;;;;;8.77;3.83;;;;;;;-1.74;100.00;94877.81;4988448;28;20288;-62
2022/04/11 03:02:04;;;;;;;7.30;4.30;;;;;;;-1.56;100.00;94875.19;4976267;28;20658;-60
2022/04/11 03:04:51;;;;;;;4.07;3.60;;;;;;;-1.42;100.00;94885.91;4990885;28;20211;-61
2022/04/11 03:07:40;;;;;;;4.80;3.97;;;;;;;-1.53;100.00;94877.09;4955415;28;20692;-61
2022/04/11 03:10:26;;;;;;;5.53;3.50;;;;;;;-1.59;100.00;94871.34;4974426;28;20680;-61
2022/04/11 03:13:18;;;;;;;5.57;3.67;;;;;;;-1.66;100.00;94870.56;5000725;28;20196;-61
2022/04/11 03:16:05;;;;;;;3.93;3.33;;;;;;;-1.72;100.00;94877.44;5002239;28;20188;-61
2022/04/11 03:18:51;;;;;;;3.77;3.37;;;;;;;-1.70;100.00;94877.81;4984333;28;20343;-61
2022/04/11 03:21:38;;;;;;;4.23;3.73;;;;;;;-1.60;100.00;94872.50;4981809;28;20192;-61
2022/04/11 03:24:29;;;;;;;4.43;3.27;;;;;;;-1.72;100.00;94861.38;4974770;28;20279;-61
2022/04/11 03:27:15;;;;;;;4.47;3.80;;;;;;;-1.56;100.00;94864.47;4980314;28;20220;-61
2022/04/11 03:30:01;;;;;;;4.40;3.53;;;;;;;-1.62;100.00;94857.94;4989874;28;20232;-61
2022/04/11 03:32:49;;;;;;;5.17;3.23;;;;;;;-1.63;100.00;94864.47;5003720;28;20224;-61
2022/04/11 03:35:38;;;;;;;5.13;3.57;;;;;;;-1.61;100.00;94857.56;4987490;28;20227;-61
2022/04/11 03:38:24;;;;;;;5.10;4.07;;;;;;;-1.58;100.00;94856.78;4982713;28;20738;-61
2022/04/11 03:41:11;;;;;;;3.27;2.63;;;;;;;-1.57;100.00;94860.25;4975819;28;20196;-62
2022/04/11 03:43:57;;;;;;;6.17;3.43;;;;;;;-1.46;100.00;94850.34;4978187;28;20216;-61
2022/04/11 03:46:44;;;;;;;3.93;3.30;;;;;;;-1.49;100.00;94854.53;4977472;28;20542;-61
2022/04/11 03:49:32;;;;;;;3.33;3.00;;;;;;;-1.57;100.00;94850.31;4986179;28;20653;-61
2022/04/11 03:52:26;;;;;;;8.73;3.40;;;;;;;-1.43;100.00;94844.97;5005388;28;20191;-61
2022/04/11 03:55:13;;;;;;;3.23;2.97;;;;;;;-1.50;100.00;94842.28;4975585;28;20281;-61
2022/04/11 03:58:06;;;;;;;4.03;3.57;;;;;;;-1.39;100.00;94835.00;4972545;28;20455;-61
2022/04/11 04:00:55;;;;;;;6.20;3.40;;;;;;;-1.31;100.00;94823.16;4974555;28;20196;-61
2022/04/11 04:03:45;;;;;;;4.57;3.27;;;;;;;-1.44;100.00;94829.28;4948677;28;20563;-61
2022/04/11 04:06:31;;;;;;;4.90;3.10;;;;;;;-1.41;100.00;94820.50;4979218;28;20222;-61
2022/04/11 04:09:17;;;;;;;4.30;3.87;;;;;;;-1.49;100.00;94814.34;4977894;28;20334;-61
2022/04/11 04:12:03;;;;;;;5.53;4.00;;;;;;;-1.43;100.00;94812.06;4995213;28;20275;-61
2022/04/11 04:15:12;;;;;;;7.27;4.47;;;;;;;-1.59;100.00;94812.44;4993466;28;20318;-61
2022/04/11 04:18:04;;;;;;;5.80;3.93;;;;;;;-1.70;100.00;94806.34;4988892;28;20216;-61
2022/04/11 04:20:51;;;;;;;4.73;3.77;;;;;;;-1.48;100.00;94801.75;4978747;28;20686;-61
2022/04/11 04:23:37;;;;;;;4.40;3.30;;;;;;;-1.46;100.00;94802.88;4997627;28;20188;-61
2022/04/11 04:26:23;;;;;;;5.33;3.50;;;;;;;-1.41;100.00;94799.81;5009440;28;20660;-61
2022/04/11 04:29:10;;;;;;;4.70;3.20;;;;;;;-1.58;100.00;94794.47;4981451;28;20212;-61
2022/04/11 04:32:01;;;;;;;5.17;3.13;;;;;;;-1.47;100.00;94804.03;4979039;28;20192;-61
2022/04/11 04:34:48;;;;;;;4.13;3.37;;;;;;;-1.50;100.00;94798.69;4978146;28;20220;-61
2022/04/11 04:37:34;;;;;;;3.80;3.17;;;;;;;-1.64;100.00;94794.09;4991706;28;20219;-61
2022/04/11 04:40:21;;;;;;;3.90;3.40;;;;;;;-1.85;100.00;94787.94;4980923;28;20260;-61
2022/04/11 04:43:09;;;;;;;3.43;2.77;;;;;;;-1.83;100.00;94788.34;4989943;23;20315;-58
2022/04/11 04:45:56;;;;;;;4.03;3.00;;;;;;;-1.92;100.00;94796.75;4990595;28;20235;-58
2022/04/11 04:49:03;;;;;;;3.73;3.00;;;;;;;-1.81;100.00;94781.44;4958727;28;20634;-58
2022/04/11 04:51:49;;;;;;;6.53;3.27;;;;;;;-1.81;100.00;94778.78;4979365;28;20326;-58
2022/04/11 04:54:36;;;;;;;4.87;3.10;;;;;;;-1.66;100.00;94788.34;4956076;28;20214;-58
2022/04/11 04:57:22;;;;;;;4.80;3.47;;;;;;;-1.64;100.00;94790.63;4940995;29;20305;-58
2022/04/11 05:00:09;;;;;;;4.17;2.97;;;;;;;-1.48;100.00;94793.72;4958619;28;20285;-58
2022/04/11 05:03:01;;;;;;;5.33;4.10;;;;;;;-1.31;100.00;94785.66;4966498;28;20301;-58
2022/04/11 05:05:47;;;;;;;7.23;3.20;;;;;;;-1.34;100.00;94774.97;4961661;28;20221;-58
2022/04/11 05:08:33;;;;;;;5.00;3.00;;;;;;;-1.14;100.00;94778.75;4965503;28;20263;-58
2022/04/11 05:11:20;;;;;;;5.47;3.03;;;;;;;-1.11;100.00;94769.19;4950908;28;20260;-58
2022/04/11 05:14:08;;;;;;;5.87;3.37;;;;;;;-1.02;100.00;94769.56;4954008;28;20652;-58
2022/04/11 05:16:56;;;;;;;4.00;3.23;;;;;;;-1.09;100.00;94782.97;4959237;28;20197;-58
2022/04/11 05:19:44;;;;;;;4.10;3.30;;;;;;;-0.95;100.00;94756.13;4954728;28;20240;-58
2022/04/11 05:22:32;;;;;;;4.97;3.33;;;;;;;-0.70;100.00;94768.31;4953278;28;20301;-58
2022/04/11 05:25:18;;;;;;;7.13;3.20;;;;;;;-0.66;100.00;94762.94;4957722;28;20193;-58
2022/04/11 05:28:04;;;;;;;5.43;3.30;;;;;;;-0.55;100.00;94761.75;4977930;28;20216;-59
2022/04/11 05:30:51;;;;;;;6.70;3.90;;;;;;;-0.55;100.00;94756.38;4957882;28;20197;-58
2022/04/11 05:33:38;;;;;;;3.70;3.40;;;;;;;-0.46;100.00;94753.28;4958377;28;20382;-58
2022/04/11 05:36:28;;;;;;;6.10;4.00;;;;;;;-0.43;100.00;94755.94;4956128;28;20217;-58
2022/04/11 05:39:14;;;;;;;4.27;2.97;;;;;;;-0.39;100.00;94755.94;4971242;28;20192;-58
2022/04/11 05:42:00;;;;;;;3.83;2.90;;;;;;;-0.25;100.00;94769.25;4963972;28;20706;-58
2022/04/11 05:44:48;;;;;;;5.50;2.90;;;;;;;-0.15;100.00;94763.84;4945225;28;20201;-58
2022/04/11 05:47:34;;;;;;;3.03;2.73;;;;;;;-0.03;100.00;94763.41;4968001;28;20200;-58
2022/04/11 05:50:20;;;;;;;6.67;3.57;;;;;;;0.13;100.00;94773.66;4959072;28;20196;-58
2022/04/11 05:53:06;;;;;;;3.37;3.07;;;;;;;0.21;100.00;94764.41;4969018;28;20245;-58
2022/04/11 05:55:52;;;;;;;7.80;3.27;;;;;;;0.23;100.00;94777.41;4970545;28;20189;-62
2022/04/11 05:58:38;;;;;;;5.60;2.80;;;;;;;0.29;100.00;94773.19;4964561;28;20505;-62
2022/04/11 06:01:24;;;;;;;10.00;2.73;;;;;;;0.33;100.00;94773.91;4956819;28;20194;-62
2022/04/11 06:04:10;;;;;;;4.00;2.83;;;;;;;0.54;100.00;94781.81;4939371;29;20193;-62
2022/04/11 06:06:57;;;;;;;5.00;3.30;;;;;;;0.55;100.00;94784.09;4962277;28;20271;-62
2022/04/11 06:09:43;;;;;;;7.13;3.30;;;;;;;0.44;100.00;94775.34;4973210;28;20281;-63
2022/04/11 06:12:29;;;;;;;5.93;2.80;;;;;;;0.51;100.00;94777.22;4939645;28;20307;-62
2022/04/11 06:15:18;;;;;;;4.50;3.30;;;;;;;0.51;100.00;94782.59;4955790;28;20221;-62
2022/04/11 06:18:08;;;;;;;6.27;3.50;;;;;;;0.63;100.00;94785.56;4955086;28;20201;-62
2022/04/11 06:20:54;;;;;;;5.00;4.03;;;;;;;0.69;100.00;94778.63;4963000;28;20193;-62
2022/04/11 06:23:40;;;;;;;6.57;3.07;;;;;;;0.80;100.00;94783.88;4964822;28;20200;-62
2022/04/11 06:26:26;;;;;;;10.17;3.70;;;;;;;1.06;100.00;94794.03;4969711;28;20340;-62
2022/04/11 06:29:12;;;;;;;3.00;2.70;;;;;;;1.52;100.00;94785.47;4971266;28;20252;-62
2022/04/11 06:32:02;;;;;;;3.20;2.17;;;;;;;1.87;100.00;94775.03;4944220;28;20749;-62
2022/04/11 06:34:50;;;;;;;5.03;2.30;;;;;;;2.11;100.00;94781.25;4967504;28;20260;-62
2022/04/11 06:37:36;;;;;;;2.30;2.10;;;;;;;2.43;100.00;94779.66;4954889;28;20205;-62
2022/04/11 06:40:22;;;;;;;3.93;3.17;;;;;;;2.82;100.00;94770.94;4954710;28;20197;-62
2022/04/11 06:43:09;;;;;;;3.67;1.80;;;;;;;3.22;98.22;94772.59;4952637;28;20237;-62
2022/04/11 06:46:21;;;;;;;4.33;1.70;;;;;;;3.56;95.82;94772.34;4959613;28;20225;-62
2022/04/11 06:49:07;;;;;;;1.47;1.10;;;;;;;3.89;86.80;94763.16;4957829;28;20189;-62
2022/04/11 06:51:55;;;;;;;2.20;1.27;;;;;;;4.13;81.03;94769.22;4962479;28;20291;-61
2022/04/11 06:54:40;;;;;;;2.03;1.40;;;;;;;4.42;81.87;94762.78;4989368;28;20220;-61
2022/04/11 06:57:26;;;;;;;2.53;1.10;;;;;;;4.48;80.67;94780.03;4981475;28;20232;-65
